sensor_id;sensor_type;location;lat;lon;timestamp;pressure;altitude;pressure_sealevel;temperature;humidity
19672;BME280;9983;51.114;13.788;2023-05-02T00:02:22;99164.63;;;14.26;100.00
19672;BME280;9983;51.114;13.788;2023-05-02T00:07:23;99161.59;;;13.55;100.00
19672;BME280;9983;51.114;13.788;2023-05-02T00:12:23;99165.13;;;13.62;100.00
19672;BME280;9983;51.114;13.788;2023-05-02T00:17:24;99176.03;;;14.15;100.00
19672;BME280;9983;51.114;13.788;2023-05-02T00:22:24;99180.97;;;13.92;100.00
19672;BME280;9983;51.114;13.788;2023-05-02T00:27:24;99188.78;;;13.74;100.00
19672;BME280;9983;51.114;13.788;2023-05-02T00:32:25;99184.25;;;13.81;100.00
19672;BME280;9983;51.114;13.788;2023-05-02T00:37:25;99188.41;;;13.90;100.00
19672;BME280;9983;51.114;13.788;2023-05-02T00:42:26;99194.72;;;14.36;100.00
19672;BME280;9983;51.114;13.788;2023-05-02T00:47:30;99190.63;;;14.54;100.00
19672;BME280;9983;51.114;13.788;2023-05-02T00:52:31;99186.03;;;13.60;100.00
19672;BME280;9983;51.114;13.788;2023-05-02T00:57:32;99197.19;;;14.05;100.00
19672;BME280;9983;51.114;13.788;2023-05-02T01:12:51;99187.72;;;14.49;100.00
19672;BME280;9983;51.114;13.788;2023-05-02T01:17:54;99177.34;;;14.46;100.00
19672;BME280;9983;51.114;13.788;2023-05-02T01:23:03;99179.38;;;14.30;100.00
19672;BME280;9983;51.114;13.788;2023-05-02T01:28:20;99192.63;;;14.25;100.00
19672;BME280;9983;51.114;13.788;2023-05-02T01:33:28;99191.41;;;14.34;100.00
19672;BME280;9983;51.114;13.788;2023-05-02T01:38:30;99176.66;;;14.17;100.00
19672;BME280;9983;51.114;13.788;2023-05-02T01:43:33;99192.28;;;14.41;100.00
19672;BME280;9983;51.114;13.788;2023-05-02T01:48:35;99184.53;;;14.12;100.00
19672;BME280;9983;51.114;13.788;2023-05-02T01:53:37;99181.81;;;13.99;100.00
19672;BME280;9983;51.114;13.788;2023-05-02T01:58:38;99171.53;;;14.62;100.00
19672;BME280;9983;51.114;13.788;2023-05-02T02:03:40;99178.59;;;14.63;100.00
19672;BME280;9983;51.114;13.788;2023-05-02T02:08:41;99182.63;;;14.06;100.00
19672;BME280;9983;51.114;13.788;2023-05-02T02:13:48;99179.75;;;14.01;100.00
19672;BME280;9983;51.114;13.788;2023-05-02T02:18:53;99187.25;;;14.32;100.00
19672;BME280;9983;51.114;13.788;2023-05-02T02:23:56;99201.41;;;14.40;100.00
19672;BME280;9983;51.114;13.788;2023-05-02T02:29:01;99193.84;;;14.03;100.00
19672;BME280;9983;51.114;13.788;2023-05-02T02:34:02;99205.69;;;14.15;100.00
19672;BME280;9983;51.114;13.788;2023-05-02T02:39:14;99201.34;;;14.27;100.00
19672;BME280;9983;51.114;13.788;2023-05-02T02:49:34;99222.09;;;14.33;100.00
19672;BME280;9983;51.114;13.788;2023-05-02T02:55:19;99232.53;;;14.50;100.00
19672;BME280;9983;51.114;13.788;2023-05-02T03:00:24;99230.81;;;14.22;100.00
19672;BME280;9983;51.114;13.788;2023-05-02T03:05:27;99251.56;;;14.35;100.00
19672;BME280;9983;51.114;13.788;2023-05-02T03:10:28;99254.06;;;14.36;100.00
19672;BME280;9983;51.114;13.788;2023-05-02T03:20:52;99264.22;;;14.28;100.00
19672;BME280;9983;51.114;13.788;2023-05-02T03:25:52;99258.47;;;13.90;100.00
19672;BME280;9983;51.114;13.788;2023-05-02T03:30:52;99270.97;;;14.04;100.00
19672;BME280;9983;51.114;13.788;2023-05-02T03:35:52;99278.44;;;14.02;100.00
19672;BME280;9983;51.114;13.788;2023-05-02T03:40:56;99279.31;;;14.16;100.00
19672;BME280;9983;51.114;13.788;2023-05-02T03:45:57;99289.22;;;14.02;100.00
19672;BME280;9983;51.114;13.788;2023-05-02T03:51:04;99285.94;;;14.13;100.00
19672;BME280;9983;51.114;13.788;2023-05-02T03:56:06;99291.38;;;14.26;100.00
19672;BME280;9983;51.114;13.788;2023-05-02T04:01:16;99302.66;;;14.43;100.00
19672;BME280;9983;51.114;13.788;2023-05-02T04:06:17;99318.19;;;13.93;100.00
19672;BME280;9983;51.114;13.788;2023-05-02T04:11:17;99319.97;;;14.14;100.00
19672;BME280;9983;51.114;13.788;2023-05-02T04:16:17;99314.16;;;14.17;100.00
19672;BME280;9983;51.114;13.788;2023-05-02T04:21:17;99340.72;;;14.20;99.30
19672;BME280;9983;51.114;13.788;2023-05-02T04:26:18;99351.03;;;14.10;97.75
19672;BME280;9983;51.114;13.788;2023-05-02T04:31:18;99350.31;;;14.29;97.41
19672;BME280;9983;51.114;13.788;2023-05-02T04:36:18;99360.31;;;13.66;99.58
19672;BME280;9983;51.114;13.788;2023-05-02T04:41:18;99376.41;;;14.22;97.68
19672;BME280;9983;51.114;13.788;2023-05-02T04:46:20;99386.19;;;13.89;97.57
19672;BME280;9983;51.114;13.788;2023-05-02T04:51:20;99395.03;;;14.17;94.87
19672;BME280;9983;51.114;13.788;2023-05-02T04:56:21;99392.72;;;14.49;97.18
19672;BME280;9983;51.114;13.788;2023-05-02T05:01:21;99403.91;;;14.46;97.95
19672;BME280;9983;51.114;13.788;2023-05-02T05:06:23;99406.25;;;14.14;92.48
19672;BME280;9983;51.114;13.788;2023-05-02T05:11:24;99427.94;;;14.40;92.33
19672;BME280;9983;51.114;13.788;2023-05-02T05:16:25;99412.53;;;14.82;89.45
19672;BME280;9983;51.114;13.788;2023-05-02T05:21:25;99432.81;;;14.24;91.82
19672;BME280;9983;51.114;13.788;2023-05-02T05:26:26;99443.72;;;14.09;93.21
19672;BME280;9983;51.114;13.788;2023-05-02T05:31:26;99446.63;;;14.42;89.58
19672;BME280;9983;51.114;13.788;2023-05-02T05:36:26;99451.84;;;14.43;88.30
19672;BME280;9983;51.114;13.788;2023-05-02T05:41:27;99464.50;;;14.50;84.73
19672;BME280;9983;51.114;13.788;2023-05-02T05:46:27;99461.25;;;14.61;85.07
19672;BME280;9983;51.114;13.788;2023-05-02T05:51:27;99463.94;;;14.26;82.88
19672;BME280;9983;51.114;13.788;2023-05-02T05:56:27;99469.63;;;14.79;83.39
19672;BME280;9983;51.114;13.788;2023-05-02T06:01:28;99481.38;;;15.12;79.18
19672;BME280;9983;51.114;13.788;2023-05-02T06:06:28;99490.91;;;15.08;78.41
19672;BME280;9983;51.114;13.788;2023-05-02T06:11:28;99494.63;;;15.07;76.43
19672;BME280;9983;51.114;13.788;2023-05-02T06:16:28;99501.25;;;14.98;77.67
19672;BME280;9983;51.114;13.788;2023-05-02T06:21:29;99521.06;;;14.36;80.87
19672;BME280;9983;51.114;13.788;2023-05-02T06:26:30;99529.41;;;14.76;77.97
19672;BME280;9983;51.114;13.788;2023-05-02T06:31:30;99544.44;;;14.98;77.87
19672;BME280;9983;51.114;13.788;2023-05-02T06:36:30;99552.09;;;14.88;76.81
19672;BME280;9983;51.114;13.788;2023-05-02T06:41:31;99566.19;;;14.49;77.67
19672;BME280;9983;51.114;13.788;2023-05-02T06:46:31;99570.50;;;14.71;78.40
19672;BME280;9983;51.114;13.788;2023-05-02T06:51:31;99579.44;;;15.19;75.27
19672;BME280;9983;51.114;13.788;2023-05-02T06:56:32;99579.25;;;14.80;71.45
19672;BME280;9983;51.114;13.788;2023-05-02T07:01:32;99590.22;;;15.19;71.26
19672;BME280;9983;51.114;13.788;2023-05-02T07:06:32;99600.56;;;15.09;72.20
19672;BME280;9983;51.114;13.788;2023-05-02T07:11:32;99602.88;;;15.67;70.44
19672;BME280;9983;51.114;13.788;2023-05-02T07:16:33;99607.38;;;15.53;70.83
19672;BME280;9983;51.114;13.788;2023-05-02T07:21:33;99614.50;;;15.61;70.04
19672;BME280;9983;51.114;13.788;2023-05-02T07:26:33;99626.13;;;15.54;70.42
19672;BME280;9983;51.114;13.788;2023-05-02T07:31:34;99630.72;;;15.54;72.27
19672;BME280;9983;51.114;13.788;2023-05-02T07:36:34;99636.59;;;15.71;70.49
19672;BME280;9983;51.114;13.788;2023-05-02T07:41:34;99644.06;;;15.82;71.34
19672;BME280;9983;51.114;13.788;2023-05-02T07:46:34;99655.34;;;15.38;73.35
19672;BME280;9983;51.114;13.788;2023-05-02T07:51:35;99668.38;;;15.21;75.31
19672;BME280;9983;51.114;13.788;2023-05-02T07:56:35;99670.56;;;15.04;76.15
19672;BME280;9983;51.114;13.788;2023-05-02T08:01:35;99684.03;;;15.93;73.58
19672;BME280;9983;51.114;13.788;2023-05-02T08:06:36;99698.41;;;15.46;75.60
19672;BME280;9983;51.114;13.788;2023-05-02T08:11:36;99706.75;;;15.16;76.12
19672;BME280;9983;51.114;13.788;2023-05-02T08:16:37;99697.50;;;15.73;75.14
19672;BME280;9983;51.114;13.788;2023-05-02T08:21:37;99713.84;;;16.26;73.42
19672;BME280;9983;51.114;13.788;2023-05-02T08:26:37;99716.63;;;16.65;71.15
19672;BME280;9983;51.114;13.788;2023-05-02T08:31:39;99725.78;;;17.04;66.41
19672;BME280;9983;51.114;13.788;2023-05-02T08:36:40;99725.38;;;16.81;67.33
19672;BME280;9983;51.114;13.788;2023-05-02T08:41:40;99724.13;;;16.77;67.13
19672;BME280;9983;51.114;13.788;2023-05-02T08:46:41;99736.63;;;16.64;67.56
19672;BME280;9983;51.114;13.788;2023-05-02T08:51:43;99739.09;;;16.46;68.22
19672;BME280;9983;51.114;13.788;2023-05-02T08:56:44;99749.06;;;16.52;68.05
19672;BME280;9983;51.114;13.788;2023-05-02T09:01:48;99744.13;;;16.62;70.28
19672;BME280;9983;51.114;13.788;2023-05-02T09:06:49;99754.88;;;16.36;67.17
19672;BME280;9983;51.114;13.788;2023-05-02T09:11:50;99759.53;;;16.68;66.53
19672;BME280;9983;51.114;13.788;2023-05-02T09:16:57;99763.69;;;16.78;67.57
19672;BME280;9983;51.114;13.788;2023-05-02T09:21:59;99775.38;;;16.85;66.66
19672;BME280;9983;51.114;13.788;2023-05-02T09:27:03;99771.63;;;16.73;64.15
19672;BME280;9983;51.114;13.788;2023-05-02T09:32:05;99783.50;;;17.11;62.30
19672;BME280;9983;51.114;13.788;2023-05-02T09:37:05;99785.53;;;16.56;64.27
19672;BME280;9983;51.114;13.788;2023-05-02T09:42:06;99785.75;;;17.27;61.95
19672;BME280;9983;51.114;13.788;2023-05-02T09:47:06;99780.72;;;17.64;60.23
19672;BME280;9983;51.114;13.788;2023-05-02T09:52:19;99786.09;;;17.77;60.68
19672;BME280;9983;51.114;13.788;2023-05-02T09:57:38;99794.06;;;17.52;63.19
19672;BME280;9983;51.114;13.788;2023-05-02T10:02:39;99793.59;;;17.75;62.81
19672;BME280;9983;51.114;13.788;2023-05-02T10:07:40;99801.56;;;17.57;64.23
19672;BME280;9983;51.114;13.788;2023-05-02T10:12:40;99801.81;;;18.13;63.66
19672;BME280;9983;51.114;13.788;2023-05-02T10:17:47;99798.13;;;17.94;63.09
19672;BME280;9983;51.114;13.788;2023-05-02T10:22:48;99804.53;;;18.51;60.77
19672;BME280;9983;51.114;13.788;2023-05-02T10:27:50;99808.59;;;17.84;61.79
19672;BME280;9983;51.114;13.788;2023-05-02T10:32:51;99808.16;;;18.76;61.72
19672;BME280;9983;51.114;13.788;2023-05-02T10:37:55;99814.47;;;17.68;62.62
19672;BME280;9983;51.114;13.788;2023-05-02T10:42:56;99814.53;;;17.28;65.05
19672;BME280;9983;51.114;13.788;2023-05-02T10:48:18;99826.63;;;17.06;67.83
19672;BME280;9983;51.114;13.788;2023-05-02T10:53:35;99828.25;;;17.73;67.53
19672;BME280;9983;51.114;13.788;2023-05-02T10:58:35;99835.59;;;18.24;67.38
19672;BME280;9983;51.114;13.788;2023-05-02T11:03:56;99824.25;;;18.40;65.11
19672;BME280;9983;51.114;13.788;2023-05-02T11:24:41;99831.75;;;18.38;64.46
19672;BME280;9983;51.114;13.788;2023-05-02T11:29:56;99825.41;;;18.12;64.53
19672;BME280;9983;51.114;13.788;2023-05-02T11:34:57;99832.81;;;18.75;62.88
19672;BME280;9983;51.114;13.788;2023-05-02T11:40:13;99827.28;;;20.83;56.61
19672;BME280;9983;51.114;13.788;2023-05-02T11:45:14;99834.47;;;19.32;59.58
19672;BME280;9983;51.114;13.788;2023-05-02T11:50:14;99841.88;;;18.93;61.22
19672;BME280;9983;51.114;13.788;2023-05-02T11:55:15;99839.28;;;20.64;56.44
19672;BME280;9983;51.114;13.788;2023-05-02T12:00:16;99837.16;;;20.36;54.63
19672;BME280;9983;51.114;13.788;2023-05-02T12:05:26;99852.59;;;18.88;59.81
19672;BME280;9983;51.114;13.788;2023-05-02T12:10:35;99848.56;;;18.08;63.34
19672;BME280;9983;51.114;13.788;2023-05-02T12:15:36;99861.44;;;18.26;63.84
19672;BME280;9983;51.114;13.788;2023-05-02T12:20:37;99869.75;;;17.54;68.17
19672;BME280;9983;51.114;13.788;2023-05-02T12:25:39;99865.81;;;17.23;68.77
19672;BME280;9983;51.114;13.788;2023-05-02T12:30:40;99866.00;;;17.41;65.61
19672;BME280;9983;51.114;13.788;2023-05-02T12:35:40;99860.84;;;18.17;63.32
19672;BME280;9983;51.114;13.788;2023-05-02T12:40:49;99865.75;;;17.89;64.16
19672;BME280;9983;51.114;13.788;2023-05-02T12:45:49;99856.13;;;18.06;61.33
19672;BME280;9983;51.114;13.788;2023-05-02T12:51:22;99851.81;;;20.95;53.19
19672;BME280;9983;51.114;13.788;2023-05-02T12:56:23;99851.28;;;20.45;55.06
19672;BME280;9983;51.114;13.788;2023-05-02T13:01:26;99852.88;;;23.02;48.65
19672;BME280;9983;51.114;13.788;2023-05-02T13:06:27;99854.53;;;22.07;48.08
19672;BME280;9983;51.114;13.788;2023-05-02T13:11:27;99855.84;;;22.44;46.46
19672;BME280;9983;51.114;13.788;2023-05-02T13:16:28;99850.41;;;23.68;43.89
19672;BME280;9983;51.114;13.788;2023-05-02T13:21:29;99856.41;;;21.94;45.72
19672;BME280;9983;51.114;13.788;2023-05-02T13:26:30;99860.88;;;19.75;50.47
19672;BME280;9983;51.114;13.788;2023-05-02T13:31:30;99867.84;;;19.89;51.14
19672;BME280;9983;51.114;13.788;2023-05-02T13:36:31;99865.72;;;19.91;52.60
19672;BME280;9983;51.114;13.788;2023-05-02T13:41:31;99869.88;;;19.50;52.57
19672;BME280;9983;51.114;13.788;2023-05-02T13:46:31;99883.84;;;19.29;54.63
19672;BME280;9983;51.114;13.788;2023-05-02T13:51:36;99875.13;;;19.20;54.84
19672;BME280;9983;51.114;13.788;2023-05-02T13:56:36;99871.28;;;19.78;54.01
19672;BME280;9983;51.114;13.788;2023-05-02T14:01:36;99871.25;;;18.78;55.98
19672;BME280;9983;51.114;13.788;2023-05-02T14:06:39;99871.25;;;19.34;56.25
19672;BME280;9983;51.114;13.788;2023-05-02T14:11:39;99871.91;;;19.05;55.81
19672;BME280;9983;51.114;13.788;2023-05-02T14:16:39;99874.66;;;19.30;55.86
19672;BME280;9983;51.114;13.788;2023-05-02T14:21:40;99878.34;;;19.11;57.13
19672;BME280;9983;51.114;13.788;2023-05-02T14:26:40;99872.81;;;18.92;57.75
19672;BME280;9983;51.114;13.788;2023-05-02T14:31:40;99890.50;;;18.70;58.06
19672;BME280;9983;51.114;13.788;2023-05-02T14:36:41;99877.28;;;19.12;58.36
19672;BME280;9983;51.114;13.788;2023-05-02T14:41:41;99889.63;;;18.76;58.44
19672;BME280;9983;51.114;13.788;2023-05-02T14:46:41;99882.31;;;18.26;61.51
19672;BME280;9983;51.114;13.788;2023-05-02T14:51:42;99896.66;;;17.75;62.16
19672;BME280;9983;51.114;13.788;2023-05-02T14:56:46;99912.09;;;17.15;72.25
19672;BME280;9983;51.114;13.788;2023-05-02T15:01:47;99933.50;;;16.49;79.36
19672;BME280;9983;51.114;13.788;2023-05-02T15:06:47;99939.16;;;16.07;81.04
19672;BME280;9983;51.114;13.788;2023-05-02T15:11:47;99953.78;;;16.19;79.31
19672;BME280;9983;51.114;13.788;2023-05-02T15:16:47;99948.13;;;16.48;78.66
19672;BME280;9983;51.114;13.788;2023-05-02T15:21:48;99942.38;;;16.64;79.42
19672;BME280;9983;51.114;13.788;2023-05-02T15:26:49;99954.38;;;16.55;79.07
19672;BME280;9983;51.114;13.788;2023-05-02T15:31:50;99955.19;;;17.17;75.02
19672;BME280;9983;51.114;13.788;2023-05-02T15:36:50;99955.41;;;17.08;75.75
19672;BME280;9983;51.114;13.788;2023-05-02T15:41:51;99969.19;;;18.26;67.96
19672;BME280;9983;51.114;13.788;2023-05-02T15:46:52;99973.19;;;18.03;65.90
19672;BME280;9983;51.114;13.788;2023-05-02T15:51:54;99980.53;;;17.96;64.97
19672;BME280;9983;51.114;13.788;2023-05-02T15:56:55;99989.69;;;17.69;64.59
19672;BME280;9983;51.114;13.788;2023-05-02T16:01:55;99993.03;;;16.84;68.53
19672;BME280;9983;51.114;13.788;2023-05-02T16:06:56;99999.63;;;16.33;72.48
19672;BME280;9983;51.114;13.788;2023-05-02T16:11:56;100007.78;;;16.75;72.62
19672;BME280;9983;51.114;13.788;2023-05-02T16:16:57;100032.81;;;16.14;75.84
19672;BME280;9983;51.114;13.788;2023-05-02T16:21:57;100021.19;;;16.14;77.84
19672;BME280;9983;51.114;13.788;2023-05-02T16:26:57;100026.28;;;16.30;76.38
19672;BME280;9983;51.114;13.788;2023-05-02T16:31:58;100030.50;;;15.83;75.91
19672;BME280;9983;51.114;13.788;2023-05-02T16:36:58;100029.50;;;15.63;73.57
19672;BME280;9983;51.114;13.788;2023-05-02T16:41:58;100035.72;;;16.13;72.13
19672;BME280;9983;51.114;13.788;2023-05-02T16:46:59;100038.97;;;16.02;73.92
19672;BME280;9983;51.114;13.788;2023-05-02T16:51:59;100046.97;;;15.67;76.30
19672;BME280;9983;51.114;13.788;2023-05-02T16:56:59;100049.16;;;15.78;75.69
19672;BME280;9983;51.114;13.788;2023-05-02T17:02:01;100043.72;;;15.36;77.95
19672;BME280;9983;51.114;13.788;2023-05-02T17:07:01;100060.94;;;15.13;77.28
19672;BME280;9983;51.114;13.788;2023-05-02T17:12:02;100063.91;;;15.18;76.95
19672;BME280;9983;51.114;13.788;2023-05-02T17:17:03;100060.84;;;15.22;75.63
19672;BME280;9983;51.114;13.788;2023-05-02T17:22:03;100068.69;;;15.38;75.00
19672;BME280;9983;51.114;13.788;2023-05-02T17:27:04;100070.63;;;15.23;74.61
19672;BME280;9983;51.114;13.788;2023-05-02T17:32:05;100084.50;;;15.41;74.12
19672;BME280;9983;51.114;13.788;2023-05-02T17:37:05;100089.41;;;15.31;73.27
19672;BME280;9983;51.114;13.788;2023-05-02T17:42:06;100101.78;;;15.25;72.77
19672;BME280;9983;51.114;13.788;2023-05-02T17:47:07;100121.69;;;14.88;73.52
19672;BME280;9983;51.114;13.788;2023-05-02T17:52:07;100124.78;;;15.36;70.96
19672;BME280;9983;51.114;13.788;2023-05-02T17:57:07;100131.56;;;14.81;70.18
19672;BME280;9983;51.114;13.788;2023-05-02T18:02:09;100135.94;;;14.97;68.53
19672;BME280;9983;51.114;13.788;2023-05-02T18:07:09;100130.31;;;14.98;67.68
19672;BME280;9983;51.114;13.788;2023-05-02T18:12:09;100143.47;;;14.72;67.49
19672;BME280;9983;51.114;13.788;2023-05-02T18:17:10;100158.25;;;14.61;67.97
19672;BME280;9983;51.114;13.788;2023-05-02T18:22:10;100168.03;;;14.77;66.87
19672;BME280;9983;51.114;13.788;2023-05-02T18:27:10;100172.50;;;14.70;67.21
19672;BME280;9983;51.114;13.788;2023-05-02T18:32:11;100180.69;;;14.62;67.67
19672;BME280;9983;51.114;13.788;2023-05-02T18:37:11;100178.84;;;14.77;67.84
19672;BME280;9983;51.114;13.788;2023-05-02T18:42:12;100180.16;;;14.81;67.80
19672;BME280;9983;51.114;13.788;2023-05-02T18:47:13;100187.19;;;14.53;67.13
19672;BME280;9983;51.114;13.788;2023-05-02T18:52:15;100197.47;;;14.72;66.33
19672;BME280;9983;51.114;13.788;2023-05-02T18:57:16;100195.47;;;14.66;65.69
19672;BME280;9983;51.114;13.788;2023-05-02T19:02:16;100200.50;;;14.54;66.81
19672;BME280;9983;51.114;13.788;2023-05-02T19:07:16;100203.47;;;14.74;66.08
19672;BME280;9983;51.114;13.788;2023-05-02T19:12:16;100209.13;;;14.50;65.77
19672;BME280;9983;51.114;13.788;2023-05-02T19:17:17;100209.22;;;14.33;65.63
19672;BME280;9983;51.114;13.788;2023-05-02T19:22:17;100200.38;;;14.48;66.47
19672;BME280;9983;51.114;13.788;2023-05-02T19:27:18;100216.19;;;14.51;65.54
19672;BME280;9983;51.114;13.788;2023-05-02T19:32:19;100231.78;;;14.40;65.35
19672;BME280;9983;51.114;13.788;2023-05-02T19:37:24;100237.19;;;14.40;63.70
19672;BME280;9983;51.114;13.788;2023-05-02T19:42:24;100230.69;;;14.04;64.36
19672;BME280;9983;51.114;13.788;2023-05-02T19:47:24;100241.81;;;14.01;64.29
19672;BME280;9983;51.114;13.788;2023-05-02T19:52:26;100245.09;;;14.19;63.74
19672;BME280;9983;51.114;13.788;2023-05-02T19:57:26;100255.22;;;13.55;65.57
19672;BME280;9983;51.114;13.788;2023-05-02T20:02:26;100259.38;;;13.19;66.50
19672;BME280;9983;51.114;13.788;2023-05-02T20:07:27;100265.53;;;13.44;66.07
19672;BME280;9983;51.114;13.788;2023-05-02T20:12:27;100262.97;;;12.79;69.20
19672;BME280;9983;51.114;13.788;2023-05-02T20:17:27;100267.28;;;13.12;67.86
19672;BME280;9983;51.114;13.788;2023-05-02T20:22:28;100274.91;;;12.68;69.74
19672;BME280;9983;51.114;13.788;2023-05-02T20:27:28;100273.03;;;12.85;70.86
19672;BME280;9983;51.114;13.788;2023-05-02T20:32:30;100282.97;;;12.92;69.80
19672;BME280;9983;51.114;13.788;2023-05-02T20:37:31;100291.72;;;12.78;70.61
19672;BME280;9983;51.114;13.788;2023-05-02T20:42:31;100290.38;;;12.74;70.68
19672;BME280;9983;51.114;13.788;2023-05-02T20:47:32;100285.16;;;12.73;70.83
19672;BME280;9983;51.114;13.788;2023-05-02T20:52:33;100294.41;;;12.86;69.77
19672;BME280;9983;51.114;13.788;2023-05-02T20:57:34;100298.78;;;12.79;70.50
19672;BME280;9983;51.114;13.788;2023-05-02T21:02:34;100297.09;;;12.95;69.62
19672;BME280;9983;51.114;13.788;2023-05-02T21:07:34;100302.78;;;13.08;69.15
19672;BME280;9983;51.114;13.788;2023-05-02T21:12:35;100300.09;;;13.00;69.35
19672;BME280;9983;51.114;13.788;2023-05-02T21:17:37;100303.16;;;12.88;68.70
19672;BME280;9983;51.114;13.788;2023-05-02T21:22:38;100305.34;;;12.77;69.31
19672;BME280;9983;51.114;13.788;2023-05-02T21:27:38;100316.94;;;12.93;67.99
19672;BME280;9983;51.114;13.788;2023-05-02T21:32:38;100316.25;;;12.91;69.19
19672;BME280;9983;51.114;13.788;2023-05-02T21:37:38;100318.97;;;12.75;68.89
19672;BME280;9983;51.114;13.788;2023-05-02T21:42:39;100320.31;;;12.79;69.31
19672;BME280;9983;51.114;13.788;2023-05-02T21:47:39;100329.22;;;12.88;68.21
19672;BME280;9983;51.114;13.788;2023-05-02T21:52:40;100325.69;;;12.63;69.14
19672;BME280;9983;51.114;13.788;2023-05-02T21:57:40;100324.34;;;12.59;73.90
19672;BME280;9983;51.114;13.788;2023-05-02T22:02:40;100350.91;;;12.46;75.66
19672;BME280;9983;51.114;13.788;2023-05-02T22:07:40;100337.72;;;12.19;76.41
19672;BME280;9983;51.114;13.788;2023-05-02T22:12:41;100333.13;;;11.35;80.43
19672;BME280;9983;51.114;13.788;2023-05-02T22:17:41;100332.56;;;11.83;78.13
19672;BME280;9983;51.114;13.788;2023-05-02T22:22:42;100328.19;;;11.22;81.96
19672;BME280;9983;51.114;13.788;2023-05-02T22:27:42;100340.13;;;11.02;83.68
19672;BME280;9983;51.114;13.788;2023-05-02T22:32:42;100337.56;;;11.18;82.97
19672;BME280;9983;51.114;13.788;2023-05-02T22:37:43;100334.78;;;11.02;84.32
19672;BME280;9983;51.114;13.788;2023-05-02T22:42:43;100340.63;;;10.80;86.39
19672;BME280;9983;51.114;13.788;2023-05-02T22:47:43;100344.81;;;11.00;85.91
19672;BME280;9983;51.114;13.788;2023-05-02T22:52:43;100349.91;;;10.68;88.19
19672;BME280;9983;51.114;13.788;2023-05-02T22:57:44;100342.56;;;10.70;89.60
19672;BME280;9983;51.114;13.788;2023-05-02T23:02:44;100345.19;;;10.61;89.67
19672;BME280;9983;51.114;13.788;2023-05-02T23:07:44;100342.88;;;10.67;89.31
19672;BME280;9983;51.114;13.788;2023-05-02T23:12:45;100343.25;;;11.15;88.31
19672;BME280;9983;51.114;13.788;2023-05-02T23:17:45;100351.97;;;10.74;90.33
19672;BME280;9983;51.114;13.788;2023-05-02T23:22:45;100358.28;;;11.08;88.31
19672;BME280;9983;51.114;13.788;2023-05-02T23:27:46;100354.06;;;11.31;88.21
19672;BME280;9983;51.114;13.788;2023-05-02T23:32:46;100366.59;;;11.49;85.60
19672;BME280;9983;51.114;13.788;2023-05-02T23:37:46;100371.66;;;10.64;91.03
19672;BME280;9983;51.114;13.788;2023-05-02T23:42:48;100370.97;;;10.80;91.51
19672;BME280;9983;51.114;13.788;2023-05-02T23:47:48;100373.59;;;10.37;94.57
19672;BME280;9983;51.114;13.788;2023-05-02T23:52:48;100373.34;;;10.65;92.74
19672;BME280;9983;51.114;13.788;2023-05-02T23:57:48;100375.03;;;11.02;90.98
